Time;durP1;ratioP1;P1;durP2;ratioP2;P2;SDS_P1;SDS_P2;PMS_P1;PMS_P2;Temp;Humidity;BMP_temperature;BMP_pressure;BME280_temperature;BME280_humidity;BME280_pressure;Samples;Min_cycle;Max_cycle;Signal;HPM_P1;HPM_P2
2024/01/31 00:00:42;;;;;;;17.20;9.80;;;;;;;-1.31;75.31;100941.55;106777;1273;25392;-65
2024/01/31 00:03:09;;;;;;;15.50;9.70;;;;;;;-1.34;75.65;100941.79;106650;1267;25469;-66
2024/01/31 00:05:35;;;;;;;18.30;10.10;;;;;;;-1.35;75.82;100941.12;106743;1261;25436;-64
2024/01/31 00:08:03;;;;;;;15.40;9.00;;;;;;;-1.35;76.00;100942.86;107000;1274;25511;-65
2024/01/31 00:10:30;;;;;;;16.70;9.50;;;;;;;-1.35;75.94;100940.45;106959;1266;25475;-62
2024/01/31 00:12:57;;;;;;;17.20;9.80;;;;;;;-1.34;75.99;100938.54;106967;1267;25319;-66
2024/01/31 00:15:24;;;;;;;16.80;10.40;;;;;;;-1.33;76.03;100939.70;106988;1266;25463;-66
2024/01/31 00:17:51;;;;;;;15.30;9.50;;;;;;;-1.31;76.18;100935.13;106742;1267;328524;-65
2024/01/31 00:20:18;;;;;;;15.30;9.90;;;;;;;-1.28;75.97;100933.34;106980;1267;25433;-62
2024/01/31 00:22:45;;;;;;;15.20;8.90;;;;;;;-1.25;75.90;100930.81;106949;1266;25402;-61
2024/01/31 00:25:13;;;;;;;14.70;9.10;;;;;;;-1.22;75.74;100931.60;106982;1261;25545;-61
2024/01/31 00:27:40;;;;;;;15.70;9.50;;;;;;;-1.20;75.57;100936.39;106881;1264;25440;-62
2024/01/31 00:30:10;;;;;;;16.50;9.70;;;;;;;-1.17;75.52;100933.89;106964;1266;25395;-61
2024/01/31 00:32:37;;;;;;;14.30;8.80;;;;;;;-1.14;75.46;100932.23;106810;1267;25359;-61
2024/01/31 00:35:04;;;;;;;15.50;9.30;;;;;;;-1.11;75.11;100935.79;106922;1266;25335;-61
2024/01/31 00:37:31;;;;;;;14.30;8.80;;;;;;;-1.09;75.07;100928.45;106779;1267;25561;-61
2024/01/31 00:39:59;;;;;;;14.70;8.70;;;;;;;-1.06;74.94;100921.95;106962;1266;25402;-62
2024/01/31 00:42:25;;;;;;;15.90;9.50;;;;;;;-1.04;74.57;100918.10;106984;1267;25386;-61
2024/01/31 00:44:52;;;;;;;15.90;9.20;;;;;;;-1.02;74.36;100912.14;106970;1276;25356;-61
2024/01/31 00:47:19;;;;;;;14.50;9.20;;;;;;;-1.00;74.25;100906.74;107037;1266;25420;-62
2024/01/31 00:49:46;;;;;;;14.40;9.00;;;;;;;-0.99;74.15;100906.55;106952;1265;25355;-61
2024/01/31 00:52:16;;;;;;;16.90;9.70;;;;;;;-0.98;74.21;100909.95;106975;1261;25343;-61
2024/01/31 00:54:43;;;;;;;17.20;10.40;;;;;;;-0.98;74.15;100909.09;106981;1267;25392;-62
2024/01/31 00:57:13;;;;;;;15.60;9.30;;;;;;;-0.96;73.97;100905.25;107002;1274;25347;-61
2024/01/31 00:59:42;;;;;;;15.30;9.40;;;;;;;-0.94;74.13;100901.91;106929;1264;25558;-61
2024/01/31 01:02:09;;;;;;;15.40;9.60;;;;;;;-0.93;73.88;100896.34;106946;1267;25402;-61
2024/01/31 01:04:36;;;;;;;14.00;8.20;;;;;;;-0.91;73.92;100898.68;106952;1268;24238;-63
2024/01/31 01:07:04;;;;;;;18.00;9.40;;;;;;;-0.90;73.63;100905.23;106961;1267;25475;-61
2024/01/31 01:09:31;;;;;;;13.50;9.00;;;;;;;-0.88;73.45;100904.67;107041;1264;22527;-63
2024/01/31 01:11:58;;;;;;;15.40;8.90;;;;;;;-0.88;73.46;100898.77;106916;1267;25317;-63
2024/01/31 01:14:25;;;;;;;14.50;9.10;;;;;;;-0.86;73.53;100894.38;106971;1267;25318;-61
2024/01/31 01:16:51;;;;;;;14.70;9.20;;;;;;;-0.84;73.30;100892.57;106944;1267;25396;-61
2024/01/31 01:19:18;;;;;;;14.90;9.00;;;;;;;-0.81;72.97;100888.16;106978;1260;25328;-62
2024/01/31 01:21:45;;;;;;;14.40;8.80;;;;;;;-0.80;72.72;100884.52;107011;1274;25491;-62
2024/01/31 01:24:12;;;;;;;12.40;8.20;;;;;;;-0.80;72.67;100886.40;106977;1273;25459;-61
2024/01/31 01:26:40;;;;;;;15.20;9.10;;;;;;;-0.80;72.72;100883.98;106869;1263;25328;-61
2024/01/31 01:29:07;;;;;;;14.70;9.20;;;;;;;-0.81;72.59;100876.56;107086;1267;25318;-63
2024/01/31 01:31:34;;;;;;;15.30;8.70;;;;;;;-0.81;72.36;100869.82;107087;1260;22528;-61
2024/01/31 01:34:01;;;;;;;14.40;9.10;;;;;;;-0.82;72.37;100868.29;106793;1267;25402;-61
2024/01/31 01:36:29;;;;;;;16.80;9.30;;;;;;;-0.84;72.21;100867.66;107027;1267;25347;-62
2024/01/31 01:38:56;;;;;;;15.50;9.10;;;;;;;-0.86;72.30;100865.28;106952;1267;25504;-61
2024/01/31 01:41:22;;;;;;;17.90;9.40;;;;;;;-0.90;72.40;100865.06;106986;1267;25346;-61
2024/01/31 01:43:49;;;;;;;14.80;9.10;;;;;;;-0.92;72.63;100864.27;106929;1267;25402;-61
2024/01/31 01:46:21;;;;;;;14.60;9.30;;;;;;;-0.94;72.42;100864.33;106995;1267;25510;-61
2024/01/31 01:48:48;;;;;;;17.00;8.80;;;;;;;-0.95;72.70;100860.55;106958;1260;22792;-61
2024/01/31 01:51:17;;;;;;;13.70;8.70;;;;;;;-0.98;72.91;100860.61;106958;1266;25318;-61
2024/01/31 01:53:45;;;;;;;13.20;8.50;;;;;;;-0.97;73.09;100856.98;107003;1266;22992;-61
2024/01/31 01:56:15;;;;;;;14.40;8.90;;;;;;;-0.97;73.06;100857.13;107033;1264;22549;-61
2024/01/31 01:58:42;;;;;;;12.30;8.30;;;;;;;-0.96;72.98;100852.08;106974;1267;25376;-62
2024/01/31 02:01:09;;;;;;;14.60;9.20;;;;;;;-0.94;72.96;100851.00;107061;1266;25465;-62
2024/01/31 02:03:36;;;;;;;11.00;7.70;;;;;;;-0.93;72.95;100844.73;106986;1266;26525;-62
2024/01/31 02:06:03;;;;;;;13.60;8.80;;;;;;;-0.91;72.96;100842.24;106966;1261;23977;-62
2024/01/31 02:08:30;;;;;;;14.50;9.00;;;;;;;-0.88;73.02;100839.54;106997;1267;25560;-62
2024/01/31 02:10:57;;;;;;;14.10;9.00;;;;;;;-0.85;72.96;100837.20;106943;1263;25374;-62
2024/01/31 02:13:24;;;;;;;14.40;9.50;;;;;;;-0.82;72.91;100838.67;106978;1266;25391;-62
2024/01/31 02:15:52;;;;;;;13.20;8.70;;;;;;;-0.79;72.95;100834.44;106735;1270;25513;-62
2024/01/31 02:18:21;;;;;;;14.10;8.90;;;;;;;-0.75;72.76;100839.34;107033;1261;25312;-61
2024/01/31 02:20:48;;;;;;;15.30;8.90;;;;;;;-0.72;72.63;100840.44;106977;1266;25469;-62
2024/01/31 02:23:15;;;;;;;14.50;8.50;;;;;;;-0.67;72.47;100842.90;106961;1267;25367;-62
2024/01/31 02:25:42;;;;;;;12.80;8.10;;;;;;;-0.64;72.27;100840.52;106789;1266;26653;-62
2024/01/31 02:28:09;;;;;;;13.70;8.00;;;;;;;-0.60;72.02;100845.09;106821;1270;25381;-61
2024/01/31 02:30:39;;;;;;;13.10;8.40;;;;;;;-0.60;71.98;100840.23;106967;1261;26474;-62
2024/01/31 02:33:06;;;;;;;13.40;8.00;;;;;;;-0.59;71.80;100842.27;106808;1266;25373;-61
2024/01/31 02:35:34;;;;;;;13.40;8.30;;;;;;;-0.58;71.57;100841.56;106939;1261;24264;-62
2024/01/31 02:38:01;;;;;;;12.30;8.60;;;;;;;-0.58;71.59;100842.95;106999;1260;22673;-61
2024/01/31 02:40:31;;;;;;;14.60;8.90;;;;;;;-0.57;71.65;100843.25;106948;1266;25350;-62
2024/01/31 02:42:59;;;;;;;14.00;8.40;;;;;;;-0.55;71.46;100838.19;106977;1272;25347;-62
2024/01/31 02:45:29;;;;;;;11.80;8.10;;;;;;;-0.55;71.47;100833.67;106970;1267;25327;-62
2024/01/31 02:47:56;;;;;;;11.90;8.10;;;;;;;-0.57;71.39;100833.39;106816;1263;23175;-61
2024/01/31 02:50:25;;;;;;;14.40;8.50;;;;;;;-0.58;71.40;100831.35;106835;1266;25395;-61
2024/01/31 02:52:52;;;;;;;15.20;8.70;;;;;;;-0.61;71.40;100829.19;107053;1266;25359;-61
2024/01/31 02:55:18;;;;;;;14.10;9.00;;;;;;;-0.64;71.48;100831.52;106816;1266;25571;-61
2024/01/31 02:57:45;;;;;;;15.10;8.90;;;;;;;-0.67;71.62;100826.23;106931;1267;25385;-61
2024/01/31 03:00:13;;;;;;;15.50;8.80;;;;;;;-0.69;71.65;100825.98;106955;1273;25452;-61
2024/01/31 03:02:44;;;;;;;12.30;8.30;;;;;;;-0.73;71.82;100826.95;107124;1260;22526;-61
2024/01/31 03:05:11;;;;;;;12.50;8.00;;;;;;;-0.76;71.92;100826.89;106976;1267;25462;-61
2024/01/31 03:07:39;;;;;;;15.20;8.50;;;;;;;-0.81;72.28;100818.55;106788;1266;25391;-61
2024/01/31 03:10:07;;;;;;;13.80;8.90;;;;;;;-0.85;72.32;100819.38;106931;1266;25464;-61
2024/01/31 03:12:34;;;;;;;16.90;9.30;;;;;;;-0.88;72.41;100816.34;107010;1265;22644;-61
2024/01/31 03:15:01;;;;;;;14.60;9.10;;;;;;;-0.89;72.67;100815.16;106935;1264;26644;-61
2024/01/31 03:17:35;;;;;;;13.90;9.50;;;;;;;-0.91;72.80;100812.45;106938;1254;25501;-62
2024/01/31 03:20:06;;;;;;;16.00;9.50;;;;;;;-0.91;72.86;100808.50;106934;1261;22523;-61
2024/01/31 03:22:34;;;;;;;14.40;9.10;;;;;;;-0.91;73.09;100809.69;106915;1274;25398;-63
2024/01/31 03:25:02;;;;;;;17.00;10.40;;;;;;;-0.91;73.04;100805.17;106968;1269;26051;-62
2024/01/31 03:27:29;;;;;;;17.70;10.20;;;;;;;-0.89;73.25;100806.88;106869;1266;25318;-61
2024/01/31 03:30:01;;;;;;;16.40;9.70;;;;;;;-0.86;73.22;100809.73;106902;1263;25367;-61
2024/01/31 03:32:31;;;;;;;19.00;9.40;;;;;;;-0.82;73.07;100811.49;107034;1267;25318;-62
2024/01/31 03:34:59;;;;;;;17.50;9.40;;;;;;;-0.80;72.99;100811.91;106911;1266;25337;-62
2024/01/31 03:37:26;;;;;;;15.20;9.50;;;;;;;-0.77;73.02;100805.10;107006;1261;26516;-61
2024/01/31 03:39:53;;;;;;;16.80;10.20;;;;;;;-0.75;72.92;100805.04;106933;1261;23154;-61
2024/01/31 03:42:20;;;;;;;15.00;9.20;;;;;;;-0.74;72.76;100800.33;106910;1261;25329;-61
2024/01/31 03:44:47;;;;;;;16.10;9.90;;;;;;;-0.72;72.79;100801.48;107012;1267;25356;-61
2024/01/31 03:47:14;;;;;;;15.30;9.60;;;;;;;-0.71;72.76;100799.90;106980;1267;25479;-61
2024/01/31 03:49:41;;;;;;;14.90;8.80;;;;;;;-0.72;72.61;100799.05;106924;1262;25367;-61
2024/01/31 03:52:08;;;;;;;16.40;9.10;;;;;;;-0.72;72.57;100798.34;106922;1273;25445;-61
2024/01/31 03:54:35;;;;;;;16.60;10.20;;;;;;;-0.73;72.66;100799.61;106783;1264;25413;-61
2024/01/31 03:57:02;;;;;;;16.80;9.50;;;;;;;-0.73;72.78;100799.61;106775;1266;25523;-61
2024/01/31 03:59:29;;;;;;;16.20;9.90;;;;;;;-0.73;72.71;100800.64;106925;1266;25357;-62
2024/01/31 04:01:56;;;;;;;15.20;10.20;;;;;;;-0.73;72.83;100803.95;106952;1266;25357;-61
2024/01/31 04:04:23;;;;;;;16.80;9.70;;;;;;;-0.72;72.92;100806.69;106827;1266;25487;-61
2024/01/31 04:06:51;;;;;;;15.50;9.60;;;;;;;-0.71;72.85;100806.11;107000;1261;25376;-61
2024/01/31 04:09:18;;;;;;;14.80;9.40;;;;;;;-0.70;72.85;100809.05;106798;1267;25387;-61
2024/01/31 04:11:44;;;;;;;17.70;10.30;;;;;;;-0.71;72.92;100801.97;106848;1269;25347;-61
2024/01/31 04:14:11;;;;;;;16.60;9.90;;;;;;;-0.70;72.91;100795.86;106970;1266;25347;-61
2024/01/31 04:16:38;;;;;;;15.30;9.40;;;;;;;-0.68;73.12;100796.67;107035;1266;25412;-62
2024/01/31 04:19:06;;;;;;;15.60;9.60;;;;;;;-0.67;72.87;100788.86;106829;1266;25491;-62
2024/01/31 04:21:33;;;;;;;15.70;9.50;;;;;;;-0.67;72.98;100786.60;106922;1265;22577;-61
2024/01/31 04:24:00;;;;;;;13.60;8.90;;;;;;;-0.68;73.00;100783.86;106914;1260;25373;-61
2024/01/31 04:26:27;;;;;;;14.90;8.90;;;;;;;-0.69;72.97;100778.84;106775;1263;25411;-61
2024/01/31 04:28:54;;;;;;;16.50;10.00;;;;;;;-0.70;72.82;100775.94;106917;1266;25389;-61
2024/01/31 04:31:21;;;;;;;14.10;9.70;;;;;;;-0.71;72.88;100775.27;106912;1266;25328;-62
2024/01/31 04:33:48;;;;;;;14.80;9.40;;;;;;;-0.73;72.83;100771.02;106799;1266;25318;-61
2024/01/31 04:36:15;;;;;;;18.90;9.70;;;;;;;-0.76;73.07;100769.56;106805;1270;25380;-61
2024/01/31 04:38:42;;;;;;;15.80;9.00;;;;;;;-0.79;73.16;100771.73;106768;1269;25478;-61
2024/01/31 04:41:09;;;;;;;15.00;9.50;;;;;;;-0.80;73.27;100767.79;106840;1267;25503;-61
2024/01/31 04:43:35;;;;;;;14.90;9.40;;;;;;;-0.83;73.15;100774.63;106779;1266;25380;-62
2024/01/31 04:46:03;;;;;;;14.30;9.30;;;;;;;-0.86;73.26;100777.67;106878;1275;25334;-61
2024/01/31 04:48:30;;;;;;;16.60;9.70;;;;;;;-0.90;73.59;100778.30;106990;1267;25516;-62
2024/01/31 04:50:57;;;;;;;14.00;8.80;;;;;;;-0.92;73.81;100771.98;106933;1273;25421;-62
2024/01/31 04:53:24;;;;;;;15.30;9.50;;;;;;;-0.93;73.71;100771.84;107113;1263;25384;-62
2024/01/31 04:55:51;;;;;;;14.40;9.40;;;;;;;-0.93;73.70;100770.13;106842;1266;25413;-62
2024/01/31 04:58:17;;;;;;;16.80;10.30;;;;;;;-0.93;73.95;100767.51;106963;1270;25417;-62
2024/01/31 05:00:44;;;;;;;17.50;10.60;;;;;;;-0.92;73.94;100768.34;106803;1266;25379;-63
2024/01/31 05:03:11;;;;;;;15.10;10.00;;;;;;;-0.90;73.97;100766.91;107029;1276;25325;-62
2024/01/31 05:05:38;;;;;;;15.30;9.50;;;;;;;-0.89;74.09;100762.73;106897;1266;26532;-61
2024/01/31 05:08:06;;;;;;;17.70;10.70;;;;;;;-0.91;74.29;100762.42;106898;1263;25910;-61
2024/01/31 05:10:34;;;;;;;17.10;9.50;;;;;;;-0.91;74.21;100763.65;106927;1266;25433;-62
2024/01/31 05:13:02;;;;;;;17.20;10.00;;;;;;;-0.92;74.10;100764.00;106946;1263;25471;-62
2024/01/31 05:15:30;;;;;;;14.40;9.10;;;;;;;-0.90;74.22;100767.77;106787;1266;25400;-62
2024/01/31 05:17:59;;;;;;;15.00;10.00;;;;;;;-0.89;74.26;100762.00;106980;1266;25344;-63
2024/01/31 05:20:29;;;;;;;15.10;9.20;;;;;;;-0.86;74.18;100768.16;106948;1264;25522;-62
2024/01/31 05:22:56;;;;;;;19.50;10.00;;;;;;;-0.84;74.12;100761.15;107119;1265;25357;-63
2024/01/31 05:25:23;;;;;;;16.70;10.20;;;;;;;-0.82;74.12;100764.56;106958;1267;25329;-65
2024/01/31 05:27:50;;;;;;;15.10;9.80;;;;;;;-0.80;74.15;100762.09;106889;1266;25338;-60
2024/01/31 05:30:17;;;;;;;17.50;10.10;;;;;;;-0.79;74.04;100758.92;106906;1266;25523;-60
2024/01/31 05:32:45;;;;;;;16.50;9.70;;;;;;;-0.78;73.92;100758.55;106957;1267;25325;-61
2024/01/31 05:35:13;;;;;;;16.80;10.40;;;;;;;-0.77;73.84;100756.94;106932;1265;25453;-60
2024/01/31 05:37:40;;;;;;;17.30;10.30;;;;;;;-0.75;73.87;100754.82;106968;1266;25328;-62
2024/01/31 05:40:11;;;;;;;16.60;9.90;;;;;;;-0.75;73.58;100750.48;106986;1266;25405;-62
2024/01/31 05:42:38;;;;;;;17.40;10.00;;;;;;;-0.76;73.62;100748.43;106845;1262;24255;-61
2024/01/31 05:45:06;;;;;;;17.30;10.70;;;;;;;-0.76;73.54;100747.93;106910;1263;25465;-62
2024/01/31 05:47:33;;;;;;;18.00;10.50;;;;;;;-0.77;73.62;100744.30;106981;1265;25350;-61
2024/01/31 05:50:00;;;;;;;18.10;10.90;;;;;;;-0.75;73.70;100746.67;106806;1266;25508;-62
2024/01/31 05:52:27;;;;;;;22.80;11.80;;;;;;;-0.74;73.78;100747.67;106923;1263;25408;-64
2024/01/31 05:54:54;;;;;;;18.50;10.90;;;;;;;-0.71;73.66;100744.28;107113;1263;25400;-62
2024/01/31 05:57:21;;;;;;;23.30;12.20;;;;;;;-0.67;73.62;100743.64;106976;1266;25391;-63
2024/01/31 05:59:48;;;;;;;23.80;12.70;;;;;;;-0.62;73.51;100744.86;107014;1267;25382;-65
2024/01/31 06:02:15;;;;;;;21.90;12.20;;;;;;;-0.59;73.22;100747.69;106749;1266;25325;-64
2024/01/31 06:04:42;;;;;;;22.40;12.40;;;;;;;-0.53;73.39;100748.73;106744;1263;25350;-65
2024/01/31 06:07:12;;;;;;;19.70;11.90;;;;;;;-0.47;73.12;100748.17;106979;1260;25459;-62
2024/01/31 06:09:39;;;;;;;19.10;11.10;;;;;;;-0.41;72.75;100744.33;106905;1266;25475;-63
2024/01/31 06:12:06;;;;;;;20.70;12.00;;;;;;;-0.33;72.55;100749.77;106911;1263;25414;-61
2024/01/31 06:14:36;;;;;;;18.70;11.40;;;;;;;-0.22;72.43;100744.38;107061;1266;25405;-63
2024/01/31 06:17:03;;;;;;;20.60;11.90;;;;;;;-0.08;72.08;100749.94;107007;1264;25504;-62
2024/01/31 06:19:30;;;;;;;17.90;10.80;;;;;;;0.10;71.40;100750.85;106959;1266;22526;-63
2024/01/31 06:21:58;;;;;;;17.60;11.20;;;;;;;0.36;70.65;100750.25;106749;1266;25478;-62
2024/01/31 06:24:25;;;;;;;16.60;10.40;;;;;;;0.70;69.92;100748.46;106856;1260;23349;-62
2024/01/31 06:26:52;;;;;;;16.50;10.70;;;;;;;1.08;68.89;100750.83;106947;1267;24175;-61
2024/01/31 06:29:19;;;;;;;17.30;11.10;;;;;;;1.51;67.52;100749.40;106746;1266;25328;-61
2024/01/31 06:31:47;;;;;;;16.30;10.80;;;;;;;1.99;65.99;100747.37;107044;1264;25500;-62
2024/01/31 06:34:14;;;;;;;17.40;10.90;;;;;;;2.47;64.37;100745.01;106902;1264;27036;-64
2024/01/31 06:36:42;;;;;;;17.50;11.30;;;;;;;2.92;62.38;100741.91;106753;1266;24210;-63
2024/01/31 06:39:09;;;;;;;16.40;11.30;;;;;;;3.22;60.78;100740.64;106844;1263;22527;-62
2024/01/31 06:41:37;;;;;;;17.90;10.80;;;;;;;3.35;59.46;100737.58;107024;1263;25391;-63
2024/01/31 06:44:04;;;;;;;16.80;11.40;;;;;;;3.36;58.60;100734.70;106954;1259;25392;-66
2024/01/31 06:46:31;;;;;;;18.00;10.70;;;;;;;3.35;58.23;100739.30;107015;1260;25430;-62
2024/01/31 06:48:59;;;;;;;18.20;11.60;;;;;;;3.34;58.08;100742.85;106996;1264;25389;-64
2024/01/31 06:51:26;;;;;;;21.70;11.20;;;;;;;3.31;57.71;100739.47;106998;1264;25420;-63
2024/01/31 06:53:53;;;;;;;16.80;10.50;;;;;;;3.20;57.37;100745.92;107034;1263;25389;-63
2024/01/31 06:56:20;;;;;;;24.80;10.70;;;;;;;3.10;57.66;100742.05;106829;1257;25337;-61
2024/01/31 06:58:48;;;;;;;19.80;11.20;;;;;;;3.11;57.33;100740.77;107117;1256;24690;-60
2024/01/31 07:01:16;;;;;;;14.90;10.40;;;;;;;3.19;56.95;100740.05;106980;1253;22530;-63
2024/01/31 07:03:46;;;;;;;17.90;10.70;;;;;;;3.33;56.76;100734.36;106959;1254;22524;-64
2024/01/31 07:06:14;;;;;;;18.40;11.20;;;;;;;3.47;56.19;100733.46;106663;1259;22552;-63
2024/01/31 07:08:41;;;;;;;18.80;11.20;;;;;;;3.58;55.75;100730.67;106965;1256;25587;-64
2024/01/31 07:11:08;;;;;;;21.70;11.60;;;;;;;3.62;55.51;100725.73;107181;1266;25353;-63
2024/01/31 07:13:36;;;;;;;20.20;11.10;;;;;;;3.57;55.45;100724.42;107042;1263;25376;-63
2024/01/31 07:16:04;;;;;;;19.20;10.80;;;;;;;3.46;55.29;100722.70;106972;1263;25343;-67
2024/01/31 07:18:32;;;;;;;15.20;10.50;;;;;;;3.33;55.58;100720.92;106762;1265;22519;-65
2024/01/31 07:20:59;;;;;;;16.20;10.90;;;;;;;3.20;55.65;100719.30;106943;1264;25779;-62
2024/01/31 07:23:33;;;;;;;16.40;10.80;;;;;;;3.08;55.78;100714.15;106717;1266;26480;-62
2024/01/31 07:26:00;;;;;;;19.30;11.80;;;;;;;2.96;56.06;100707.02;106669;1263;22651;-64
2024/01/31 07:28:27;;;;;;;20.30;13.10;;;;;;;2.87;56.21;100703.63;106919;1263;25327;-63
2024/01/31 07:30:54;;;;;;;18.50;13.00;;;;;;;2.82;56.62;100709.28;106778;1269;22533;-64
2024/01/31 07:33:22;;;;;;;19.60;12.80;;;;;;;2.75;56.83;100708.55;106789;1264;25405;-63
2024/01/31 07:35:50;;;;;;;18.70;12.10;;;;;;;2.73;56.88;100711.60;106831;1264;25350;-64
2024/01/31 07:38:18;;;;;;;18.80;12.10;;;;;;;2.69;57.21;100711.64;106696;1275;22796;-64
2024/01/31 07:40:48;;;;;;;17.50;12.10;;;;;;;2.69;57.00;100711.98;106895;1263;25383;-63
2024/01/31 07:43:15;;;;;;;18.20;12.70;;;;;;;2.67;57.13;100717.64;107019;1261;25376;-64
2024/01/31 07:45:43;;;;;;;21.20;11.90;;;;;;;2.66;57.21;100715.23;107565;1265;25361;-65
2024/01/31 07:48:13;;;;;;;20.20;12.30;;;;;;;2.64;57.25;100717.10;106534;1266;26595;-66
2024/01/31 07:50:40;;;;;;;20.40;12.30;;;;;;;2.66;57.36;100719.64;106496;1272;26468;-65
2024/01/31 07:53:07;;;;;;;17.60;12.20;;;;;;;2.75;57.49;100713.98;107213;1263;22650;-66
2024/01/31 07:55:38;;;;;;;17.40;12.00;;;;;;;2.87;57.11;100713.39;107915;1267;25353;-64
2024/01/31 07:58:05;;;;;;;19.00;11.70;;;;;;;2.99;56.82;100715.41;106717;1266;22577;-65
2024/01/31 08:00:32;;;;;;;17.60;11.80;;;;;;;3.10;56.60;100717.34;106560;1272;22560;-68
2024/01/31 08:03:00;;;;;;;16.50;11.30;;;;;;;3.18;56.24;100718.89;106756;1264;26681;-66
2024/01/31 08:05:28;;;;;;;18.20;11.50;;;;;;;3.27;56.08;100714.21;106728;1266;25353;-67
2024/01/31 08:07:55;;;;;;;18.00;11.20;;;;;;;3.39;55.74;100719.05;106629;1269;25443;-66
2024/01/31 08:10:22;;;;;;;19.50;11.20;;;;;;;3.55;55.44;100719.98;106927;1256;25325;-65
2024/01/31 08:12:50;;;;;;;17.00;12.20;;;;;;;3.72;55.30;100721.58;107047;1269;25331;-68
2024/01/31 08:15:17;;;;;;;19.70;11.70;;;;;;;3.82;54.94;100723.84;106735;1264;25356;-65
2024/01/31 08:17:46;;;;;;;19.20;11.80;;;;;;;3.88;54.47;100722.32;106829;1269;25082;-66
2024/01/31 08:20:14;;;;;;;22.10;12.60;;;;;;;3.90;54.32;100722.92;106843;1275;23803;-68
2024/01/31 08:22:41;;;;;;;18.90;12.10;;;;;;;3.86;54.44;100720.81;106641;1270;22566;-69
2024/01/31 08:25:09;;;;;;;17.90;12.00;;;;;;;3.83;54.32;100719.92;106722;1253;25453;-65
2024/01/31 08:27:36;;;;;;;21.30;13.20;;;;;;;3.80;54.43;100720.48;106693;1267;26515;-65
2024/01/31 08:30:04;;;;;;;18.90;12.60;;;;;;;3.79;54.55;100717.00;106527;1254;24211;-67
2024/01/31 08:32:34;;;;;;;24.70;13.10;;;;;;;3.84;54.49;100719.02;106864;1263;25346;-67
2024/01/31 08:35:02;;;;;;;21.50;13.10;;;;;;;4.04;54.36;100714.34;106921;1268;25574;-66
2024/01/31 08:37:30;;;;;;;17.80;12.50;;;;;;;4.49;53.89;100711.73;107059;1266;22530;-66
2024/01/31 08:39:57;;;;;;;19.30;12.00;;;;;;;4.82;52.96;100712.52;106902;1259;25340;-65
2024/01/31 08:42:28;;;;;;;18.30;11.70;;;;;;;5.05;52.18;100709.29;107210;1256;22516;-66
2024/01/31 08:44:56;;;;;;;17.70;11.70;;;;;;;5.13;51.33;100707.98;107094;1268;23784;-66
2024/01/31 08:47:23;;;;;;;18.80;11.10;;;;;;;5.43;50.64;100706.04;107006;1272;25319;-64
2024/01/31 08:49:49;;;;;;;22.20;11.30;;;;;;;6.02;49.91;100700.82;106554;1275;22515;-65
2024/01/31 08:52:17;;;;;;;20.30;10.70;;;;;;;6.91;48.16;100692.59;106730;1257;25344;-66
2024/01/31 08:54:44;;;;;;;20.20;11.00;;;;;;;8.15;45.88;100693.23;107459;1253;22513;-66
2024/01/31 08:57:11;;;;;;;16.90;10.00;;;;;;;9.47;43.18;100687.31;106614;1253;22548;-65
2024/01/31 08:59:38;;;;;;;17.10;11.00;;;;;;;10.71;40.61;100678.91;106943;1254;25328;-67
2024/01/31 09:02:07;;;;;;;15.50;10.60;;;;;;;11.85;38.97;100674.61;106894;1266;25350;-67
2024/01/31 09:04:35;;;;;;;13.30;10.20;;;;;;;12.82;36.82;100668.45;106807;1269;23798;-69
2024/01/31 09:07:02;;;;;;;15.90;10.90;;;;;;;13.66;35.07;100664.54;107276;1256;22519;-66
2024/01/31 09:09:32;;;;;;;19.00;10.40;;;;;;;14.38;33.82;100657.16;106796;1266;25353;-65
2024/01/31 09:12:00;;;;;;;17.00;11.20;;;;;;;15.11;32.18;100650.52;106759;1257;25020;-69
2024/01/31 09:14:27;;;;;;;16.60;10.90;;;;;;;15.68;31.20;100644.41;106827;1270;25475;-67
2024/01/31 09:16:54;;;;;;;19.70;11.40;;;;;;;16.24;30.14;100646.95;106480;1269;24198;-67
2024/01/31 09:19:21;;;;;;;16.60;11.40;;;;;;;16.79;29.13;100643.31;106956;1275;25405;-67
2024/01/31 09:21:48;;;;;;;14.40;10.90;;;;;;;17.21;28.38;100646.06;106494;1257;23877;-69
2024/01/31 09:24:15;;;;;;;15.10;10.90;;;;;;;17.44;27.84;100643.89;106678;1261;25387;-65
2024/01/31 09:26:43;;;;;;;13.50;10.40;;;;;;;17.51;27.13;100644.19;106505;1258;25514;-64
2024/01/31 09:29:10;;;;;;;14.70;9.80;;;;;;;17.45;26.81;100636.55;106563;1273;23913;-65
2024/01/31 09:31:38;;;;;;;17.40;10.70;;;;;;;17.43;26.80;100634.21;107072;1266;25402;-66
2024/01/31 09:34:05;;;;;;;13.60;10.20;;;;;;;17.43;26.77;100629.95;106694;1257;24243;-65
2024/01/31 09:36:32;;;;;;;14.20;10.70;;;;;;;17.57;26.79;100629.84;106676;1269;25347;-66
2024/01/31 09:38:59;;;;;;;14.70;10.20;;;;;;;17.91;26.11;100625.54;106438;1260;24044;-68
2024/01/31 09:41:26;;;;;;;15.60;11.50;;;;;;;18.16;25.74;100615.21;107147;1269;25424;-67
2024/01/31 09:43:53;;;;;;;17.10;12.10;;;;;;;18.42;25.61;100609.79;106469;1276;25334;-66
2024/01/31 09:46:20;;;;;;;17.60;12.00;;;;;;;18.61;25.51;100603.60;106453;1276;22944;-67
2024/01/31 09:48:48;;;;;;;17.00;12.80;;;;;;;18.77;25.14;100600.30;107375;1256;25325;-68
2024/01/31 09:51:15;;;;;;;18.90;13.30;;;;;;;18.94;24.73;100598.62;106660;1260;25328;-67
2024/01/31 09:53:42;;;;;;;15.30;11.70;;;;;;;19.01;24.60;100594.46;106518;1254;24471;-65
2024/01/31 09:56:09;;;;;;;15.30;11.50;;;;;;;18.89;24.57;100592.48;106615;1259;25403;-65
2024/01/31 09:58:36;;;;;;;15.00;11.70;;;;;;;18.58;24.55;100590.61;106402;1272;26142;-64
2024/01/31 10:01:04;;;;;;;14.60;10.70;;;;;;;18.20;24.82;100586.50;106212;1269;25184;-65
2024/01/31 10:03:41;;;;;;;15.00;11.20;;;;;;;17.88;25.06;100579.64;106328;1275;27661;-64
2024/01/31 10:06:08;;;;;;;16.70;11.60;;;;;;;17.63;25.37;100584.02;106765;1256;25426;-65
2024/01/31 10:08:39;;;;;;;15.90;11.20;;;;;;;17.39;25.57;100581.46;106613;1270;24239;-69
2024/01/31 10:11:06;;;;;;;16.60;11.60;;;;;;;17.26;25.58;100577.13;107683;1260;22517;-67
2024/01/31 10:13:33;;;;;;;17.20;11.80;;;;;;;17.20;25.60;100576.67;106666;1256;24300;-65
2024/01/31 10:16:00;;;;;;;15.70;11.90;;;;;;;17.29;25.16;100572.31;106686;1256;25424;-65
2024/01/31 10:18:29;;;;;;;13.60;10.70;;;;;;;17.27;25.30;100566.80;106615;1257;27484;-65
2024/01/31 10:20:59;;;;;;;14.70;10.80;;;;;;;17.49;25.03;100563.54;106219;1275;23972;-65
2024/01/31 10:23:26;;;;;;;16.20;10.60;;;;;;;17.76;24.77;100560.35;106542;1257;24004;-67
2024/01/31 10:25:54;;;;;;;13.90;10.30;;;;;;;18.03;24.52;100562.95;106552;1276;25459;-68
2024/01/31 10:28:22;;;;;;;12.90;9.60;;;;;;;18.38;24.25;100560.94;106580;1259;22531;-66
2024/01/31 10:30:50;;;;;;;13.80;10.60;;;;;;;18.77;23.74;100563.05;107150;1270;25519;-65
2024/01/31 10:33:17;;;;;;;13.80;9.80;;;;;;;19.04;23.40;100559.13;106455;1254;25338;-66
2024/01/31 10:35:45;;;;;;;16.50;9.90;;;;;;;19.25;23.33;100558.45;106760;1256;22633;-63
2024/01/31 10:38:32;;;;;;;16.20;11.00;;;;;;;19.49;22.88;100557.37;106750;1257;22528;-63
2024/01/31 10:41:00;;;;;;;16.30;10.50;;;;;;;19.51;22.79;100554.41;107699;1269;22517;-66
2024/01/31 10:43:27;;;;;;;13.30;10.20;;;;;;;19.45;22.75;100552.50;107590;1260;25377;-65
2024/01/31 10:45:54;;;;;;;13.60;10.40;;;;;;;19.41;22.73;100550.52;106781;1257;22544;-64
2024/01/31 10:48:21;;;;;;;14.90;10.50;;;;;;;19.35;22.84;100541.71;107373;1270;25386;-66
2024/01/31 10:50:50;;;;;;;16.80;10.80;;;;;;;19.45;22.83;100540.88;106938;1257;22550;-66
2024/01/31 10:53:17;;;;;;;15.20;11.00;;;;;;;19.59;22.53;100538.27;107004;1259;24228;-68
2024/01/31 10:55:44;;;;;;;13.90;10.30;;;;;;;19.83;22.40;100531.21;107054;1269;25355;-66
2024/01/31 10:58:13;;;;;;;15.60;9.80;;;;;;;20.11;22.20;100533.25;106529;1259;25401;-65
2024/01/31 11:00:46;;;;;;;16.30;10.60;;;;;;;20.34;22.00;100527.74;107513;1256;25415;-64
2024/01/31 11:03:14;;;;;;;16.50;10.20;;;;;;;20.52;22.15;100519.91;106972;1255;25439;-66
2024/01/31 11:05:41;;;;;;;12.60;9.70;;;;;;;20.63;21.62;100521.59;106854;1264;25407;-65
2024/01/31 11:08:19;;;;;;;13.10;9.90;;;;;;;20.13;21.83;100510.67;106748;1256;25376;-67